Subic Bay International Airport
RPLB : now visible

Airfield :











YOU CAN JOIN US ON...

 
LOGIN :

Register | Disclaimer

   EN    FR    IT 

 









Legend :    VFR   Marginal VFR   IFR   Intensive IFR   Very Intensive IFR
Visi :
Ceiling :
>= 8 km
>= 3000ft
5 to 8 km
1000 to 3000 ft
1500m to 5 km
500 to 1000 ft
800 to 1500m
200 to 500 ft
< 800m
< 200 ft
Symbols :   Thunderstorms  Fog  Heavy snow  Heavy precipitations  Wind > 20 kt






- Airport Elevation : 64 ft
- IATA code : SFS


RPLB - Subic Bay International

CURRENT METAR :
  • 131100Z 04003KT 9999 FEW020 SCT080 27/22 Q1011 NOSIG RMK A2985

EXPIRED METARs :
  • 131000Z 08004KT 9999 FEW020 SCT080 BKN300 27/22 Q1011 NOSIG RMK A2985
  • 130900Z 06003KT 9999 FEW020 SCT080 OVC300 28/21 Q1010 NOSIG RMK A2983

TAF TAF RPLB
Valid from the 13 at 12:00 until the 14 at 12:00 UTC


131100Z 1312/1412 06007KT 9999 FEW020 SCT080 BKN300 TX30/1406Z TN23/1320Z
TEMPO 1312/1318 04010KT 8000 -RA SCT018 OVC080



MET'MAP, your aeronautical weather chart ! - Copyright ORBIFLY December 2007 - Disclaimer

ORBIFLY MET'MAP TEAM :

Programming & Development : Alexandra Zaïnal
Concept & Development : Baudouin d'Aumeries
Co-Development & Prog : Marc-Olivier Méhu
Technical & hardware support : Manuel Goepfert

Contact : metmap@orbifly.com




SOURCES & CREDITS :

   NOAA       Earth
Advisory